Time;durP1;ratioP1;P1;durP2;ratioP2;P2;SDS_P1;SDS_P2;PMS_P1;PMS_P2;Temp;Humidity;BMP_temperature;BMP_pressure;BME280_temperature;BME280_humidity;BME280_pressure;Samples;Min_cycle;Max_cycle;Signal;HPM_P1;HPM_P2
2024/01/12 00:00:20;;;;;;;54.42;23.83;;;-1.00;65.60;;;;;;4942731;28;20513;-59
2024/01/12 00:02:46;;;;;;;53.90;24.52;;;-1.10;65.50;;;;;;4955085;28;20032;-59
2024/01/12 00:05:11;;;;;;;48.08;23.20;;;-1.10;65.50;;;;;;4953480;28;20024;-60
2024/01/12 00:07:37;;;;;;;54.30;25.05;;;-1.00;65.70;;;;;;4957116;28;20064;-60
2024/01/12 00:10:03;;;;;;;54.10;24.92;;;-1.00;65.70;;;;;;4955803;28;20713;-60
2024/01/12 00:12:29;;;;;;;50.88;23.83;;;-1.00;65.60;;;;;;4954008;28;20036;-59
2024/01/12 00:14:55;;;;;;;48.25;24.23;;;-1.00;65.50;;;;;;4954920;28;20039;-60
2024/01/12 00:17:21;;;;;;;56.25;26.30;;;-1.00;65.50;;;;;;4953437;28;20114;-60
2024/01/12 00:19:46;;;;;;;54.38;25.60;;;-0.80;65.70;;;;;;4955896;28;20051;-61
2024/01/12 00:22:12;;;;;;;62.92;28.60;;;-0.90;65.70;;;;;;4957422;28;20035;-60
2024/01/12 00:24:38;;;;;;;66.90;30.00;;;-0.90;65.70;;;;;;4955834;28;20023;-59
2024/01/12 00:27:04;;;;;;;75.90;33.25;;;-0.90;65.60;;;;;;4954053;28;20046;-60
2024/01/12 00:29:29;;;;;;;70.32;31.50;;;-0.90;65.60;;;;;;4953248;28;20113;-60
2024/01/12 00:31:56;;;;;;;68.28;31.08;;;-0.90;65.50;;;;;;4954987;28;20031;-59
2024/01/12 00:34:22;;;;;;;72.25;32.35;;;-0.90;65.40;;;;;;4954343;28;20170;-60
2024/01/12 00:36:48;;;;;;;73.72;31.10;;;-0.90;65.30;;;;;;4958140;28;20031;-58
2024/01/12 00:39:17;;;;;;;69.65;30.25;;;-0.90;65.20;;;;;;4955497;28;20038;-59
2024/01/12 00:41:43;;;;;;;62.33;28.77;;;-0.70;65.20;;;;;;4970082;28;20037;-59
2024/01/12 00:44:08;;;;;;;55.40;26.58;;;-0.70;65.20;;;;;;4959845;28;20031;-60
2024/01/12 00:46:34;;;;;;;51.63;25.90;;;-0.90;65.00;;;;;;4962430;28;20063;-58
2024/01/12 00:49:00;;;;;;;54.63;25.08;;;-1.00;65.10;;;;;;4956319;28;20030;-59
2024/01/12 00:57:43;;;;;;;51.72;25.08;;;-1.10;65.40;;;;;;3039031;28;20052;-62
2024/01/12 01:00:09;;;;;;;50.38;23.60;;;-0.90;65.20;;;;;;4944688;28;20442;-62
2024/01/12 01:02:35;;;;;;;51.17;25.00;;;-1.00;65.20;;;;;;4950235;28;20461;-63
2024/01/12 01:05:02;;;;;;;60.03;25.98;;;-1.00;65.20;;;;;;4896339;28;20049;-64
2024/01/12 01:07:28;;;;;;;51.90;24.35;;;-1.00;65.40;;;;;;4934838;29;20027;-62
2024/01/12 01:09:54;;;;;;;54.47;23.95;;;-0.90;65.20;;;;;;4947614;28;20046;-63
2024/01/12 01:12:20;;;;;;;49.38;23.52;;;-1.00;65.10;;;;;;4951291;28;20063;-62
2024/01/12 01:14:46;;;;;;;50.20;23.73;;;-1.00;65.10;;;;;;4949479;28;20123;-62
2024/01/12 01:17:12;;;;;;;49.17;23.33;;;-1.00;65.20;;;;;;4952850;28;20109;-62
2024/01/12 01:19:38;;;;;;;51.60;23.92;;;-1.00;65.20;;;;;;4945293;28;20374;-63
2024/01/12 01:22:04;;;;;;;48.90;22.63;;;-1.00;65.20;;;;;;4947959;28;20031;-62
2024/01/12 01:24:29;;;;;;;50.03;24.73;;;-1.10;65.00;;;;;;4948184;28;20082;-62
2024/01/12 01:26:56;;;;;;;54.88;25.05;;;-1.10;65.10;;;;;;4945676;28;20461;-63
2024/01/12 01:29:22;;;;;;;49.20;23.02;;;-1.10;65.10;;;;;;4938557;28;20102;-62
2024/01/12 01:31:48;;;;;;;46.92;22.58;;;-1.10;65.10;;;;;;4945682;28;20031;-63
2024/01/12 01:34:14;;;;;;;51.80;23.30;;;-1.10;65.10;;;;;;4944834;28;20073;-62
2024/01/12 01:36:40;;;;;;;47.25;22.90;;;-1.20;65.10;;;;;;4943216;28;20027;-62
2024/01/12 01:39:06;;;;;;;50.28;23.05;;;-1.20;65.00;;;;;;4946106;28;20031;-62
2024/01/12 01:41:32;;;;;;;52.83;23.33;;;-1.20;65.10;;;;;;4947586;28;20452;-63
2024/01/12 01:43:57;;;;;;;44.75;21.42;;;-1.30;65.10;;;;;;4948241;28;20363;-63
2024/01/12 01:46:25;;;;;;;49.33;21.50;;;-1.30;65.10;;;;;;4937876;29;20400;-62
2024/01/12 01:48:51;;;;;;;42.28;22.30;;;-1.30;65.10;;;;;;4942667;28;20036;-64
2024/01/12 01:51:17;;;;;;;41.53;20.67;;;-1.30;65.10;;;;;;4945651;28;20029;-63
2024/01/12 01:53:43;;;;;;;41.17;20.40;;;-1.40;65.10;;;;;;4946804;28;20498;-62
2024/01/12 01:56:10;;;;;;;49.40;21.63;;;-1.40;65.10;;;;;;4946638;28;20047;-63
2024/01/12 01:58:36;;;;;;;45.05;21.02;;;-1.20;65.20;;;;;;4913056;28;1222526;-62
2024/01/12 02:01:03;;;;;;;44.90;21.67;;;-1.20;65.20;;;;;;4961412;28;20119;-63
2024/01/12 02:03:39;;;;;;;48.72;22.27;;;-1.40;65.10;;;;;;4966288;28;20035;-62
2024/01/12 02:06:05;;;;;;;55.15;21.70;;;-1.50;64.90;;;;;;4961876;28;20030;-64
2024/01/12 02:08:31;;;;;;;45.58;19.98;;;-1.40;64.80;;;;;;4965272;28;20568;-61
2024/01/12 02:10:56;;;;;;;48.20;21.52;;;-1.50;64.70;;;;;;4962862;28;20134;-63
2024/01/12 02:13:22;;;;;;;50.47;21.77;;;-1.60;64.70;;;;;;4967116;28;20601;-62
2024/01/12 02:15:49;;;;;;;50.13;22.05;;;-1.60;64.60;;;;;;4960598;28;20098;-63
2024/01/12 02:18:15;;;;;;;46.95;20.58;;;-1.60;64.50;;;;;;4965905;28;20043;-63
2024/01/12 02:20:41;;;;;;;53.08;22.15;;;-1.60;64.40;;;;;;4961038;28;20493;-64
2024/01/12 02:23:07;;;;;;;45.30;21.60;;;-1.70;64.30;;;;;;4959813;28;20023;-63
2024/01/12 02:25:33;;;;;;;48.08;21.42;;;-1.70;64.40;;;;;;4963067;28;20032;-62
2024/01/12 02:27:59;;;;;;;50.85;21.55;;;-1.70;64.50;;;;;;4962803;28;20042;-63
2024/01/12 02:30:25;;;;;;;51.45;22.90;;;-1.80;64.60;;;;;;4962897;28;20035;-63
2024/01/12 02:32:50;;;;;;;48.95;22.50;;;-1.80;64.80;;;;;;4961359;28;20135;-63
2024/01/12 02:35:16;;;;;;;42.13;21.38;;;-1.80;64.80;;;;;;4967636;28;20389;-63
2024/01/12 02:37:41;;;;;;;46.30;22.23;;;-1.80;64.70;;;;;;4962075;28;20031;-63
2024/01/12 02:40:07;;;;;;;45.75;20.38;;;-1.90;64.40;;;;;;4960799;28;20027;-62
2024/01/12 02:42:33;;;;;;;46.17;21.23;;;-1.90;64.40;;;;;;4965649;28;20022;-62
2024/01/12 02:44:59;;;;;;;44.42;19.17;;;-1.90;64.30;;;;;;4962675;28;20041;-63
2024/01/12 02:47:24;;;;;;;48.38;21.38;;;-2.00;64.30;;;;;;4964218;28;20038;-63
2024/01/12 02:49:50;;;;;;;49.20;21.50;;;-2.00;64.40;;;;;;4964538;28;20038;-62
2024/01/12 02:52:16;;;;;;;40.22;19.40;;;-2.00;64.60;;;;;;4964863;28;20034;-63
2024/01/12 02:54:41;;;;;;;46.67;21.23;;;-2.10;64.50;;;;;;4957954;28;20039;-62
2024/01/12 02:57:07;;;;;;;47.42;22.02;;;-2.10;64.50;;;;;;4964204;28;20042;-63
2024/01/12 02:59:32;;;;;;;40.45;19.60;;;-2.10;64.60;;;;;;4962524;28;20057;-63
2024/01/12 03:01:58;;;;;;;41.17;20.30;;;-2.00;64.60;;;;;;4970875;28;20042;-62
2024/01/12 03:04:24;;;;;;;43.83;21.05;;;-2.20;64.50;;;;;;4892544;28;20626;-61
2024/01/12 03:06:50;;;;;;;44.00;20.85;;;-2.20;64.60;;;;;;4965630;28;20797;-63
2024/01/12 03:09:16;;;;;;;41.88;19.75;;;-2.20;64.40;;;;;;4961595;28;20665;-63
2024/01/12 03:11:41;;;;;;;38.65;19.77;;;-2.20;64.30;;;;;;4967612;28;20084;-63
2024/01/12 03:14:08;;;;;;;44.17;20.23;;;-2.30;64.30;;;;;;4945883;28;20027;-62
2024/01/12 03:16:34;;;;;;;35.83;19.25;;;-2.30;64.40;;;;;;4963536;28;20033;-63
2024/01/12 03:18:59;;;;;;;43.00;20.80;;;-2.30;64.50;;;;;;4963141;28;20035;-63
2024/01/12 03:21:25;;;;;;;41.58;20.92;;;-2.30;64.60;;;;;;4964045;28;20070;-62
2024/01/12 03:23:51;;;;;;;43.15;20.20;;;-2.30;64.60;;;;;;4970044;28;20038;-62
2024/01/12 03:26:16;;;;;;;40.65;19.52;;;-2.40;64.50;;;;;;4964951;28;20584;-63
2024/01/12 03:28:42;;;;;;;48.38;19.25;;;-2.40;64.60;;;;;;4967385;28;20053;-63
2024/01/12 03:31:08;;;;;;;37.30;18.45;;;-2.40;64.50;;;;;;4967900;28;20500;-63
2024/01/12 03:33:33;;;;;;;47.40;19.95;;;-2.40;64.30;;;;;;4966770;28;20125;-63
2024/01/12 03:36:00;;;;;;;39.90;18.48;;;-2.50;64.20;;;;;;4964173;28;20453;-62
2024/01/12 03:38:25;;;;;;;35.85;18.08;;;-2.50;64.40;;;;;;4966940;28;20647;-63
2024/01/12 03:40:51;;;;;;;36.60;17.55;;;-2.50;64.50;;;;;;4963272;28;20038;-63
2024/01/12 03:43:17;;;;;;;38.95;18.63;;;-2.50;64.60;;;;;;4974338;28;20030;-63
2024/01/12 03:45:42;;;;;;;37.63;17.88;;;-2.60;64.30;;;;;;4967926;28;20038;-62
2024/01/12 03:48:08;;;;;;;35.03;17.02;;;-2.40;65.00;;;;;;4966675;28;20069;-62
2024/01/12 03:50:34;;;;;;;38.25;17.75;;;-2.60;64.30;;;;;;4968426;28;20026;-62
2024/01/12 03:52:59;;;;;;;40.13;18.38;;;-2.60;64.60;;;;;;4962776;28;20042;-63
2024/01/12 03:55:25;;;;;;;38.58;17.95;;;-2.70;64.60;;;;;;4963699;28;20492;-62
2024/01/12 03:57:51;;;;;;;38.50;18.25;;;-2.70;64.60;;;;;;4965124;28;20057;-63
2024/01/12 04:00:17;;;;;;;32.45;17.33;;;-2.70;64.50;;;;;;4960154;28;20034;-63
2024/01/12 04:02:42;;;;;;;35.92;17.55;;;-2.70;64.40;;;;;;4966277;28;20031;-64
2024/01/12 04:05:09;;;;;;;40.33;17.83;;;-2.80;64.40;;;;;;4968627;28;20493;-63
2024/01/12 04:07:35;;;;;;;37.08;16.92;;;-2.70;64.60;;;;;;4945398;28;20062;-64
2024/01/12 04:10:01;;;;;;;39.17;17.63;;;-2.60;64.70;;;;;;4968619;28;20117;-63
2024/01/12 04:12:26;;;;;;;39.40;18.75;;;-2.80;64.70;;;;;;4966189;28;20031;-61
2024/01/12 04:14:52;;;;;;;39.60;18.15;;;-2.80;64.80;;;;;;4971544;28;20031;-63
2024/01/12 04:17:18;;;;;;;39.83;17.95;;;-2.80;64.60;;;;;;4967157;28;20030;-62
2024/01/12 04:19:43;;;;;;;37.38;17.80;;;-2.80;64.60;;;;;;4965076;28;20394;-63
2024/01/12 04:22:09;;;;;;;40.53;18.40;;;-2.80;64.60;;;;;;4971737;28;20105;-62
2024/01/12 04:24:35;;;;;;;52.40;19.90;;;-2.80;64.60;;;;;;4966617;28;20580;-62
2024/01/12 04:27:01;;;;;;;35.25;18.02;;;-2.80;64.70;;;;;;4965966;28;20058;-63
2024/01/12 04:29:26;;;;;;;42.83;20.42;;;-2.80;64.70;;;;;;4960778;28;20043;-63
2024/01/12 04:31:52;;;;;;;44.30;20.25;;;-2.90;64.80;;;;;;4965129;28;20381;-63
2024/01/12 04:34:17;;;;;;;47.70;20.98;;;-2.90;65.10;;;;;;4968441;28;20090;-63
2024/01/12 04:36:43;;;;;;;40.78;19.08;;;-2.80;65.20;;;;;;4975451;28;20034;-64
2024/01/12 04:39:09;;;;;;;41.97;19.60;;;-2.70;65.40;;;;;;4970619;28;20045;-62
2024/01/12 04:41:35;;;;;;;43.85;20.00;;;-2.80;65.20;;;;;;4971725;28;20023;-64
2024/01/12 04:44:01;;;;;;;40.65;19.20;;;-2.90;65.20;;;;;;4965309;28;20338;-62
2024/01/12 04:46:28;;;;;;;41.95;20.88;;;-2.80;65.30;;;;;;4965071;28;20031;-63
2024/01/12 04:48:53;;;;;;;40.50;18.35;;;-2.80;65.30;;;;;;4972702;28;20053;-64
2024/01/12 04:51:19;;;;;;;40.15;19.10;;;-2.90;65.20;;;;;;4970731;28;20020;-63
2024/01/12 04:53:44;;;;;;;42.67;18.92;;;-2.80;65.20;;;;;;4970118;28;20026;-63
2024/01/12 04:56:11;;;;;;;38.47;18.90;;;-2.90;65.10;;;;;;4972627;28;20042;-62
2024/01/12 04:58:38;;;;;;;44.15;17.50;;;-2.90;65.10;;;;;;4967281;28;20051;-63
2024/01/12 05:01:04;;;;;;;33.13;17.98;;;-2.90;65.10;;;;;;4964546;28;20137;-63
2024/01/12 05:03:29;;;;;;;41.05;18.05;;;-2.90;65.00;;;;;;4896749;28;20081;-62
2024/01/12 05:05:55;;;;;;;36.60;17.27;;;-2.90;65.00;;;;;;4962822;28;20050;-63
2024/01/12 05:08:21;;;;;;;41.05;18.50;;;-3.00;65.00;;;;;;4959653;28;20051;-63
2024/01/12 05:10:46;;;;;;;42.35;18.77;;;-3.00;64.80;;;;;;4967745;28;20089;-63
2024/01/12 05:13:12;;;;;;;42.45;19.15;;;-3.00;64.70;;;;;;4971416;28;20031;-63
2024/01/12 05:15:38;;;;;;;40.17;19.58;;;-3.00;64.80;;;;;;4965549;28;20034;-63
2024/01/12 05:18:04;;;;;;;42.22;20.63;;;-3.00;64.80;;;;;;4964524;28;20408;-63
2024/01/12 05:20:29;;;;;;;41.72;18.75;;;-3.10;64.70;;;;;;4965278;28;20041;-62
2024/01/12 05:22:55;;;;;;;38.75;18.55;;;-3.10;64.80;;;;;;4969900;28;20370;-62
2024/01/12 05:25:21;;;;;;;43.25;19.92;;;-3.10;64.70;;;;;;4968420;28;20098;-63
2024/01/12 05:27:46;;;;;;;38.92;19.50;;;-3.10;64.70;;;;;;4966325;28;20034;-62
2024/01/12 05:30:13;;;;;;;42.22;18.23;;;-3.10;64.60;;;;;;4966645;28;20030;-64
2024/01/12 05:32:39;;;;;;;41.63;19.02;;;-3.10;64.50;;;;;;4963468;28;20038;-63
2024/01/12 05:35:05;;;;;;;41.55;19.42;;;-3.20;64.50;;;;;;4964430;28;20057;-64
2024/01/12 05:37:30;;;;;;;39.25;19.45;;;-3.20;64.60;;;;;;4968784;28;20034;-62
2024/01/12 05:39:56;;;;;;;40.72;18.48;;;-3.20;64.70;;;;;;4964327;28;20031;-62
2024/01/12 05:42:22;;;;;;;42.90;18.30;;;-3.20;64.80;;;;;;4962922;28;20603;-62
2024/01/12 05:44:47;;;;;;;37.95;17.55;;;-3.20;64.80;;;;;;4961844;28;20103;-63
2024/01/12 05:47:13;;;;;;;43.90;18.92;;;-3.20;64.70;;;;;;4964733;28;20042;-62
2024/01/12 05:49:39;;;;;;;41.33;18.92;;;-3.20;64.50;;;;;;4968089;28;20066;-61
2024/01/12 05:52:05;;;;;;;39.33;18.40;;;-3.20;64.50;;;;;;4967221;28;20505;-62
2024/01/12 05:54:31;;;;;;;50.58;21.38;;;-3.20;64.50;;;;;;4966608;28;20125;-63
2024/01/12 05:56:57;;;;;;;42.08;20.38;;;-3.00;64.70;;;;;;4965707;28;20101;-62
2024/01/12 05:59:22;;;;;;;40.67;19.67;;;-3.30;64.30;;;;;;4944447;28;20039;-63
2024/01/12 06:01:48;;;;;;;37.72;18.77;;;-3.30;64.30;;;;;;4948770;28;20035;-63
2024/01/12 06:04:14;;;;;;;43.05;20.02;;;-3.30;64.20;;;;;;4948065;28;20126;-63
2024/01/12 06:06:42;;;;;;;40.03;19.92;;;-3.30;64.20;;;;;;4942628;28;20058;-62
2024/01/12 06:09:08;;;;;;;44.45;19.85;;;-3.30;64.30;;;;;;4944907;28;20045;-62
2024/01/12 06:11:34;;;;;;;44.97;20.35;;;-3.30;64.20;;;;;;4947139;28;20023;-63
2024/01/12 06:14:00;;;;;;;38.35;19.95;;;-3.10;64.30;;;;;;4929683;29;20370;-64
2024/01/12 06:16:26;;;;;;;47.33;21.33;;;-3.20;64.30;;;;;;4945885;28;20027;-63
2024/01/12 06:18:52;;;;;;;49.78;22.45;;;-3.40;64.20;;;;;;4943038;28;20086;-64
2024/01/12 06:21:17;;;;;;;49.05;23.42;;;-3.40;64.30;;;;;;4945303;28;20107;-63
2024/01/12 06:23:43;;;;;;;55.33;23.83;;;-3.40;64.30;;;;;;4944653;28;20434;-63
2024/01/12 06:26:09;;;;;;;54.10;22.50;;;-3.40;64.10;;;;;;4944891;28;20063;-63
2024/01/12 06:28:34;;;;;;;52.10;22.30;;;-3.40;64.10;;;;;;4943468;28;20397;-63
2024/01/12 06:31:00;;;;;;;47.03;22.83;;;-3.40;64.20;;;;;;4943480;28;20090;-63
2024/01/12 06:33:26;;;;;;;54.05;22.90;;;-3.40;64.40;;;;;;4967858;28;20063;-63
2024/01/12 06:35:51;;;;;;;61.55;26.15;;;-3.50;64.50;;;;;;4974469;28;20054;-64
2024/01/12 06:38:17;;;;;;;82.68;32.90;;;-3.50;64.50;;;;;;4979675;28;20091;-64
2024/01/12 06:40:43;;;;;;;63.53;28.48;;;-3.50;64.50;;;;;;4968978;28;20023;-63
2024/01/12 06:43:08;;;;;;;62.70;26.63;;;-3.50;64.50;;;;;;4955899;28;20067;-63
2024/01/12 06:45:34;;;;;;;57.55;25.73;;;-3.50;64.50;;;;;;4945219;28;20035;-63
2024/01/12 06:48:00;;;;;;;60.00;25.17;;;-3.50;64.40;;;;;;4944883;28;20049;-63
2024/01/12 06:50:28;;;;;;;49.47;23.13;;;-3.50;64.30;;;;;;4943520;28;20114;-63
2024/01/12 06:52:55;;;;;;;56.08;24.75;;;-3.60;64.10;;;;;;4944546;28;20070;-63
2024/01/12 06:55:21;;;;;;;54.40;24.27;;;-3.60;64.00;;;;;;4949292;28;20027;-63
2024/01/12 06:57:47;;;;;;;51.08;23.55;;;-3.60;64.10;;;;;;4955798;28;20153;-63
2024/01/12 07:00:15;;;;;;;49.90;24.63;;;-3.60;64.00;;;;;;4962789;28;20041;-62
2024/01/12 07:02:40;;;;;;;56.58;24.40;;;-3.60;64.10;;;;;;4962904;28;20029;-63
2024/01/12 07:05:07;;;;;;;57.40;24.75;;;-3.70;64.00;;;;;;4890134;28;20038;-64
2024/01/12 07:07:33;;;;;;;48.05;22.70;;;-3.70;64.10;;;;;;4964159;28;20381;-64
2024/01/12 07:09:59;;;;;;;57.55;24.30;;;-3.60;64.20;;;;;;4963084;28;20788;-64
2024/01/12 07:12:25;;;;;;;54.00;24.92;;;-3.70;64.30;;;;;;4962654;28;20038;-63
2024/01/12 07:14:50;;;;;;;65.85;27.25;;;-3.70;64.40;;;;;;4968023;28;20042;-63
2024/01/12 07:17:16;;;;;;;59.85;25.63;;;-3.70;64.50;;;;;;4959897;28;20049;-63
2024/01/12 07:19:44;;;;;;;63.30;26.33;;;-3.70;64.50;;;;;;4960839;28;20031;-63
2024/01/12 07:22:09;;;;;;;59.28;26.05;;;-3.70;64.40;;;;;;4965628;28;20528;-63
2024/01/12 07:24:35;;;;;;;55.05;23.98;;;-3.70;64.40;;;;;;4965865;28;20022;-66
2024/01/12 07:27:01;;;;;;;53.15;23.30;;;-3.70;64.60;;;;;;4961438;28;20037;-66
2024/01/12 07:29:26;;;;;;;52.17;23.73;;;-3.70;64.80;;;;;;4962345;28;20081;-66
2024/01/12 07:31:52;;;;;;;52.70;23.48;;;-3.70;65.00;;;;;;4962258;28;20109;-66
2024/01/12 07:34:18;;;;;;;61.17;23.15;;;-3.70;65.10;;;;;;4961116;28;20034;-66
2024/01/12 07:36:44;;;;;;;48.78;22.55;;;-3.70;65.10;;;;;;4968732;28;20039;-66
2024/01/12 07:39:10;;;;;;;53.97;22.58;;;-3.60;65.20;;;;;;4966549;28;20066;-66
2024/01/12 07:41:36;;;;;;;52.38;23.25;;;-3.60;65.10;;;;;;4964762;28;20169;-66
2024/01/12 07:44:01;;;;;;;48.35;21.88;;;-3.60;65.10;;;;;;4965598;28;20046;-66
2024/01/12 07:46:28;;;;;;;51.17;23.67;;;-3.50;65.30;;;;;;4966261;28;20042;-66
2024/01/12 07:48:55;;;;;;;48.83;21.30;;;-3.50;65.30;;;;;;4956216;28;20481;-66
2024/01/12 07:51:21;;;;;;;52.17;23.38;;;-3.40;65.30;;;;;;4962464;28;20038;-67
2024/01/12 07:53:47;;;;;;;51.42;21.92;;;-3.40;65.30;;;;;;4962716;28;20101;-66
2024/01/12 07:56:12;;;;;;;48.45;21.98;;;-3.40;65.40;;;;;;4966058;28;20106;-66
2024/01/12 07:58:38;;;;;;;52.22;22.23;;;-3.30;65.30;;;;;;4966595;28;20079;-66
2024/01/12 08:01:07;;;;;;;46.70;22.20;;;-3.30;65.30;;;;;;4957099;28;20035;-67
2024/01/12 08:03:33;;;;;;;50.05;23.35;;;-3.30;65.20;;;;;;4901056;28;20102;-65
2024/01/12 08:06:00;;;;;;;48.47;21.48;;;-3.20;65.30;;;;;;4965099;28;20037;-67
2024/01/12 08:08:26;;;;;;;45.13;22.10;;;-2.80;65.60;;;;;;4963997;28;20488;-67
2024/01/12 08:10:52;;;;;;;50.83;23.60;;;-3.10;65.30;;;;;;4961545;28;20042;-67
2024/01/12 08:13:17;;;;;;;66.70;26.65;;;-3.10;65.20;;;;;;4965689;28;20460;-67
2024/01/12 08:15:43;;;;;;;109.47;32.58;;;-3.00;65.30;;;;;;4967087;28;20460;-67
2024/01/12 08:18:09;;;;;;;74.18;32.95;;;-3.00;65.30;;;;;;4971273;28;20042;-67
2024/01/12 08:20:34;;;;;;;66.43;29.45;;;-2.90;65.40;;;;;;4960926;28;20717;-67
2024/01/12 08:23:00;;;;;;;61.80;28.08;;;-2.80;65.40;;;;;;4961857;28;20030;-67
2024/01/12 08:25:25;;;;;;;59.78;27.35;;;-2.80;65.30;;;;;;4967198;28;20042;-65
2024/01/12 08:27:51;;;;;;;59.20;27.92;;;-2.70;65.40;;;;;;4962206;28;20046;-67
2024/01/12 08:30:17;;;;;;;54.63;25.90;;;-2.60;65.40;;;;;;4964493;28;20030;-67
2024/01/12 08:32:42;;;;;;;54.85;24.58;;;-2.60;65.40;;;;;;4966299;28;20039;-66
2024/01/12 08:35:08;;;;;;;55.85;24.75;;;-2.50;65.40;;;;;;4965808;28;20058;-67
2024/01/12 08:37:34;;;;;;;54.08;24.08;;;-2.40;65.60;;;;;;4963900;28;20038;-66
2024/01/12 08:39:59;;;;;;;51.10;23.23;;;-2.30;65.60;;;;;;4965494;28;20030;-66
2024/01/12 08:42:25;;;;;;;50.38;23.45;;;-2.10;65.60;;;;;;4964379;28;20176;-66
2024/01/12 08:44:51;;;;;;;54.85;23.88;;;-1.90;65.80;;;;;;4968411;28;20027;-66
2024/01/12 08:47:19;;;;;;;52.67;23.65;;;-1.90;65.70;;;;;;4968973;28;20185;-66
2024/01/12 08:49:45;;;;;;;48.42;23.05;;;-1.90;65.60;;;;;;4966268;28;20050;-66
2024/01/12 08:52:10;;;;;;;62.17;24.58;;;-1.80;65.50;;;;;;4965803;28;20038;-67
2024/01/12 09:08:41;;;;;;;54.85;23.27;;;-1.10;65.40;;;;;;6076706;23;20068;-58
2024/01/12 09:11:07;;;;;;;56.30;23.98;;;-1.00;65.30;;;;;;4972200;28;20030;-59
2024/01/12 09:13:33;;;;;;;49.13;22.25;;;-0.90;65.20;;;;;;4972107;28;20041;-59
2024/01/12 09:15:59;;;;;;;51.55;24.55;;;-0.80;65.10;;;;;;4972463;28;20034;-59
2024/01/12 09:18:25;;;;;;;52.35;25.63;;;-0.70;65.00;;;;;;4975132;28;20039;-64
2024/01/12 09:20:50;;;;;;;55.10;25.73;;;-0.60;64.90;;;;;;4970794;28;20026;-64
2024/01/12 09:23:16;;;;;;;56.25;25.48;;;-0.60;64.70;;;;;;4975087;28;20030;-63
2024/01/12 09:25:42;;;;;;;54.17;24.90;;;-0.50;64.70;;;;;;4975033;28;20496;-63
2024/01/12 09:28:07;;;;;;;50.25;23.95;;;-0.40;64.70;;;;;;4976086;28;20046;-61
2024/01/12 09:30:34;;;;;;;51.13;23.63;;;-0.30;64.60;;;;;;4968923;28;20030;-63
2024/01/12 09:33:00;;;;;;;57.85;25.35;;;-0.20;64.60;;;;;;4967957;28;20054;-62
2024/01/12 09:35:26;;;;;;;53.90;25.05;;;-0.20;64.50;;;;;;4974956;28;20038;-64
2024/01/12 09:37:51;;;;;;;53.67;25.90;;;-0.10;64.60;;;;;;4970846;28;20038;-63
2024/01/12 09:40:17;;;;;;;59.92;27.38;;;0.10;64.50;;;;;;4967514;28;20031;-63
2024/01/12 09:42:44;;;;;;;51.03;26.48;;;0.10;64.40;;;;;;4966296;28;20753;-63
2024/01/12 09:45:13;;;;;;;53.17;25.70;;;0.20;64.40;;;;;;4971061;28;20489;-63
2024/01/12 09:47:40;;;;;;;53.15;26.42;;;0.30;64.30;;;;;;4968575;28;20088;-63
2024/01/12 09:50:08;;;;;;;48.85;25.50;;;0.40;64.20;;;;;;4965601;28;20124;-63
2024/01/12 09:52:35;;;;;;;57.35;26.63;;;0.40;64.00;;;;;;4970809;28;20472;-62
2024/01/12 09:55:01;;;;;;;54.85;27.35;;;0.50;64.00;;;;;;4968672;28;20043;-63
2024/01/12 09:57:27;;;;;;;52.90;26.27;;;0.60;64.00;;;;;;4963732;28;20030;-63
2024/01/12 09:59:54;;;;;;;56.53;26.63;;;0.90;64.10;;;;;;4968255;28;20042;-63
2024/01/12 10:02:20;;;;;;;55.95;28.02;;;0.80;64.00;;;;;;4968269;28;20035;-63
2024/01/12 10:04:46;;;;;;;56.22;28.15;;;0.90;63.90;;;;;;4973264;28;20041;-64
2024/01/12 10:07:12;;;;;;;55.63;27.60;;;1.00;63.80;;;;;;4968371;28;20496;-63
2024/01/12 10:09:37;;;;;;;58.75;28.25;;;1.10;63.70;;;;;;4964903;28;20062;-62
2024/01/12 10:12:03;;;;;;;60.63;28.05;;;1.10;63.50;;;;;;4966161;28;20029;-63
2024/01/12 10:14:29;;;;;;;59.22;28.85;;;1.20;63.50;;;;;;4964021;28;20031;-62
2024/01/12 10:16:55;;;;;;;62.25;31.17;;;1.30;63.50;;;;;;4918143;28;20655;-63
2024/01/12 10:19:22;;;;;;;60.13;29.70;;;1.30;63.30;;;;;;4976890;28;20031;-63
2024/01/12 10:21:48;;;;;;;62.33;29.70;;;1.40;63.30;;;;;;4977395;28;20023;-65
2024/01/12 10:24:17;;;;;;;59.83;31.05;;;1.50;63.30;;;;;;4980232;28;20058;-64
2024/01/12 10:26:47;;;;;;;61.78;31.35;;;1.60;63.00;;;;;;4980013;28;20058;-63
2024/01/12 10:29:16;;;;;;;56.15;28.75;;;1.70;62.90;;;;;;4960235;28;20047;-63
2024/01/12 10:31:43;;;;;;;59.55;29.05;;;1.70;62.80;;;;;;4981181;28;20116;-64
2024/01/12 10:34:14;;;;;;;54.65;28.95;;;1.80;62.80;;;;;;4967891;28;20073;-64
2024/01/12 10:36:40;;;;;;;55.13;28.23;;;1.90;62.70;;;;;;4966004;28;20430;-63
2024/01/12 10:39:11;;;;;;;54.13;27.60;;;1.90;62.70;;;;;;4968744;28;20038;-63
2024/01/12 10:41:40;;;;;;;63.63;29.23;;;2.30;62.70;;;;;;4968105;28;20120;-63
2024/01/12 10:44:06;;;;;;;52.88;27.92;;;2.00;62.50;;;;;;4963222;28;20118;-62
2024/01/12 10:46:45;;;;;;;60.83;30.42;;;2.10;62.50;;;;;;4964374;28;20089;-63
2024/01/12 10:49:23;;;;;;;54.08;28.40;;;2.10;62.20;;;;;;4971532;28;20047;-62
2024/01/12 10:51:58;;;;;;;58.42;30.45;;;2.20;62.30;;;;;;4966778;28;20026;-64
2024/01/12 10:54:29;;;;;;;55.60;28.33;;;2.30;62.30;;;;;;4968663;28;20174;-64
2024/01/12 10:56:55;;;;;;;65.30;33.50;;;2.40;62.20;;;;;;4965450;28;20035;-64
2024/01/12 10:59:25;;;;;;;72.68;36.28;;;2.60;62.20;;;;;;4968559;28;20022;-63
2024/01/12 11:01:51;;;;;;;69.07;34.80;;;2.50;62.20;;;;;;4964777;28;20037;-62
2024/01/12 11:04:17;;;;;;;59.28;32.20;;;2.60;62.20;;;;;;4967034;28;20105;-62
2024/01/12 11:06:48;;;;;;;64.53;33.35;;;2.70;62.10;;;;;;4967361;28;20034;-63
2024/01/12 11:09:17;;;;;;;60.88;31.10;;;2.70;61.90;;;;;;4968424;28;20062;-62
2024/01/12 11:11:57;;;;;;;58.97;31.38;;;2.80;61.80;;;;;;4961595;28;20174;-64
2024/01/12 11:14:23;;;;;;;60.17;30.92;;;2.80;61.40;;;;;;4965311;28;20023;-63
2024/01/12 11:16:50;;;;;;;61.58;30.77;;;3.00;61.80;;;;;;4894165;28;20027;-62
2024/01/12 11:19:18;;;;;;;65.30;33.15;;;2.90;61.70;;;;;;4972071;28;20062;-63
2024/01/12 11:21:44;;;;;;;63.85;32.28;;;3.20;61.80;;;;;;4966699;28;20134;-64
2024/01/12 11:24:13;;;;;;;59.28;30.58;;;3.00;61.40;;;;;;4966334;28;20098;-64
2024/01/12 11:26:41;;;;;;;70.90;34.70;;;3.10;61.40;;;;;;4962398;28;20034;-63
2024/01/12 11:29:18;;;;;;;59.35;32.15;;;3.00;61.20;;;;;;4969217;28;20035;-63
2024/01/12 11:31:51;;;;;;;65.00;31.27;;;3.10;61.60;;;;;;4967306;28;20026;-62
2024/01/12 11:34:17;;;;;;;65.13;32.70;;;3.00;61.60;;;;;;4965973;28;20031;-62
2024/01/12 11:36:43;;;;;;;75.68;34.75;;;3.10;61.60;;;;;;4967205;28;20800;-62
2024/01/12 11:39:12;;;;;;;65.95;32.67;;;3.10;61.40;;;;;;4967222;28;20046;-62
2024/01/12 11:41:44;;;;;;;69.18;32.85;;;3.10;61.40;;;;;;4963678;28;20393;-62
2024/01/12 11:44:10;;;;;;;64.53;31.63;;;3.30;61.40;;;;;;4966557;28;20081;-62
2024/01/12 11:46:36;;;;;;;66.40;31.75;;;3.10;61.50;;;;;;4970645;28;20026;-62
2024/01/12 11:49:04;;;;;;;61.45;30.90;;;3.10;61.60;;;;;;4970333;28;20046;-62
2024/01/12 11:51:30;;;;;;;61.08;31.88;;;3.20;61.60;;;;;;4967077;28;20033;-63
2024/01/12 11:53:56;;;;;;;62.97;31.88;;;3.20;61.50;;;;;;4964869;28;20389;-64
2024/01/12 11:56:23;;;;;;;60.90;31.45;;;3.20;61.50;;;;;;4965867;28;20093;-64
2024/01/12 11:58:49;;;;;;;63.65;31.88;;;3.20;61.50;;;;;;4967442;28;20119;-64
2024/01/12 12:01:15;;;;;;;74.35;38.60;;;3.30;61.40;;;;;;4969647;28;20117;-62
2024/01/12 12:03:42;;;;;;;55.30;31.05;;;3.30;61.40;;;;;;4968497;28;20022;-64
2024/01/12 12:06:11;;;;;;;60.80;30.08;;;3.30;61.30;;;;;;4973415;28;20030;-62
2024/01/12 12:08:39;;;;;;;52.65;28.75;;;3.30;60.90;;;;;;4969179;28;20046;-64
2024/01/12 12:11:05;;;;;;;55.10;27.60;;;3.30;61.00;;;;;;4967071;28;20027;-63
2024/01/12 12:13:34;;;;;;;56.50;28.60;;;3.30;61.20;;;;;;4970646;28;20113;-65
2024/01/12 12:16:03;;;;;;;57.38;29.52;;;3.30;61.20;;;;;;4971495;28;20486;-64
2024/01/12 12:18:30;;;;;;;57.53;29.23;;;3.30;61.20;;;;;;4887284;28;20030;-64
2024/01/12 12:20:57;;;;;;;57.58;30.27;;;3.30;61.40;;;;;;4976066;28;20034;-63
2024/01/12 12:23:24;;;;;;;59.90;29.85;;;3.30;61.40;;;;;;4968154;28;20114;-64
2024/01/12 12:25:50;;;;;;;55.00;28.35;;;3.30;61.40;;;;;;4967289;28;20461;-63
2024/01/12 12:28:16;;;;;;;52.13;29.05;;;3.30;61.30;;;;;;4952018;28;20050;-62
2024/01/12 12:30:42;;;;;;;58.63;30.10;;;3.40;61.20;;;;;;4967695;28;20034;-63
2024/01/12 12:33:09;;;;;;;54.47;28.67;;;3.40;61.20;;;;;;4952671;28;20030;-64
2024/01/12 12:35:35;;;;;;;58.15;29.27;;;3.40;61.20;;;;;;4974386;28;20109;-63
2024/01/12 12:38:01;;;;;;;173.30;63.28;;;3.40;61.10;;;;;;4965864;28;20026;-64
2024/01/12 12:40:27;;;;;;;66.05;34.30;;;3.40;61.10;;;;;;4968468;28;20031;-63
2024/01/12 12:42:53;;;;;;;64.65;32.30;;;3.40;61.10;;;;;;4965419;28;20074;-62